createdAt,value
2018-06-05T00:00:02.738Z,0.00
2018-06-05T00:01:02.717Z,0.00
2018-06-05T00:02:02.706Z,0.00
2018-06-05T00:03:02.692Z,0.00
2018-06-05T00:04:02.674Z,0.00
2018-06-05T00:05:02.658Z,0.00
2018-06-05T00:06:02.643Z,0.00
2018-06-05T00:07:02.628Z,0.00
2018-06-05T00:08:02.613Z,0.00
2018-06-05T00:09:02.604Z,0.00
2018-06-05T00:10:02.589Z,0.00
2018-06-05T00:11:02.572Z,0.00
2018-06-05T00:12:02.565Z,0.00
2018-06-05T00:13:02.537Z,0.00
2018-06-05T00:14:02.527Z,0.00
2018-06-05T00:15:02.509Z,0.00
2018-06-05T00:16:02.494Z,0.00
2018-06-05T00:17:02.479Z,0.00
2018-06-05T00:18:02.471Z,0.00
2018-06-05T00:19:02.454Z,0.00
2018-06-05T00:20:02.435Z,0.00
2018-06-05T00:21:02.418Z,0.00
2018-06-05T00:22:02.406Z,0.00
2018-06-05T00:23:02.389Z,0.00
2018-06-05T00:24:02.377Z,0.00
2018-06-05T00:25:02.359Z,0.00
2018-06-05T00:26:02.345Z,0.00
2018-06-05T00:27:02.352Z,0.00
2018-06-05T00:28:02.313Z,0.00
2018-06-05T00:29:02.305Z,0.00
2018-06-05T00:30:02.288Z,0.00
2018-06-05T00:31:02.284Z,0.00
2018-06-05T00:32:02.254Z,0.00
2018-06-05T00:33:02.240Z,0.00
2018-06-05T00:34:02.251Z,0.00
2018-06-05T00:35:02.209Z,0.00
2018-06-05T00:36:02.194Z,0.00
2018-06-05T00:37:02.190Z,0.00
2018-06-05T00:38:02.167Z,0.00
2018-06-05T00:39:02.151Z,0.00
2018-06-05T00:40:02.133Z,0.00
2018-06-05T00:41:02.125Z,0.00
2018-06-05T00:42:02.103Z,0.00
2018-06-05T00:43:02.090Z,0.00
2018-06-05T00:44:02.073Z,0.00
2018-06-05T00:45:02.062Z,0.00
2018-06-05T00:46:02.043Z,0.00
2018-06-05T00:47:02.033Z,0.00
2018-06-05T00:48:02.014Z,0.00
2018-06-05T00:49:02.000Z,0.00
2018-06-05T00:50:01.985Z,0.00
2018-06-05T00:51:01.973Z,0.00
2018-06-05T00:52:01.953Z,0.00
2018-06-05T00:53:01.941Z,0.00
2018-06-05T00:54:01.926Z,0.00
2018-06-05T00:55:01.911Z,0.00
2018-06-05T00:56:01.894Z,0.00
2018-06-05T00:57:01.880Z,0.00
2018-06-05T00:58:01.866Z,0.00
2018-06-05T00:59:01.856Z,0.00
2018-06-05T01:00:01.836Z,0.00
2018-06-05T01:01:01.819Z,0.00
2018-06-05T01:02:01.801Z,0.00
2018-06-05T01:03:01.788Z,0.00
2018-06-05T01:04:01.772Z,0.00
2018-06-05T01:05:01.756Z,0.00
2018-06-05T01:06:01.751Z,0.00
2018-06-05T01:07:01.728Z,0.00
2018-06-05T01:08:01.714Z,0.00
2018-06-05T01:09:01.698Z,0.00
2018-06-05T01:10:01.682Z,0.00
2018-06-05T01:11:01.666Z,0.00
2018-06-05T01:12:01.649Z,0.00
2018-06-05T01:13:01.645Z,0.00
2018-06-05T01:14:01.619Z,0.00
2018-06-05T01:15:01.606Z,0.00
2018-06-05T01:16:01.591Z,0.00
2018-06-05T01:17:01.573Z,0.00
2018-06-05T01:18:01.567Z,0.00
2018-06-05T01:19:01.557Z,0.00
2018-06-05T01:20:01.549Z,0.00
2018-06-05T01:21:01.514Z,0.00
2018-06-05T01:22:01.500Z,0.00
2018-06-05T01:23:01.486Z,0.00
2018-06-05T01:24:01.474Z,0.00
2018-06-05T01:25:01.453Z,0.00
2018-06-05T01:26:01.440Z,0.00
2018-06-05T01:27:01.423Z,0.00
2018-06-05T01:28:01.410Z,0.00
2018-06-05T01:29:01.393Z,0.00
2018-06-05T01:30:01.377Z,0.00
2018-06-05T01:31:01.364Z,0.00
2018-06-05T01:32:01.351Z,0.00
2018-06-05T01:33:01.332Z,0.00
2018-06-05T01:34:01.319Z,0.00
2018-06-05T01:35:01.310Z,0.00
2018-06-05T01:36:01.288Z,0.00
2018-06-05T01:37:01.283Z,0.00
2018-06-05T01:38:01.257Z,0.00
2018-06-05T01:39:01.241Z,0.00
2018-06-05T01:40:01.229Z,0.00
2018-06-05T01:41:01.209Z,0.00
2018-06-05T01:42:01.206Z,0.00
2018-06-05T01:43:01.181Z,0.00
2018-06-05T01:44:01.169Z,0.00
2018-06-05T01:45:01.148Z,0.00
2018-06-05T01:46:01.160Z,0.00
2018-06-05T01:47:01.122Z,0.00
2018-06-05T01:48:01.105Z,0.00
2018-06-05T01:49:01.088Z,0.00
2018-06-05T01:50:01.090Z,0.00
2018-06-05T01:51:01.063Z,0.00
2018-06-05T01:52:01.040Z,0.00
2018-06-05T01:53:01.027Z,0.00
2018-06-05T01:54:01.014Z,0.00
2018-06-05T01:55:01.006Z,0.00
2018-06-05T01:56:00.981Z,0.00
2018-06-05T01:57:00.976Z,0.00
2018-06-05T01:58:00.971Z,0.00
2018-06-05T01:59:00.936Z,0.00
2018-06-05T02:00:00.918Z,0.00
2018-06-05T02:01:00.907Z,0.00
2018-06-05T02:02:00.890Z,0.00
2018-06-05T02:03:00.875Z,0.00
2018-06-05T02:04:00.856Z,0.00
2018-06-05T02:05:00.853Z,0.00
2018-06-05T02:06:00.830Z,0.00
2018-06-05T02:07:00.813Z,0.00
2018-06-05T02:08:00.805Z,0.00
2018-06-05T02:09:00.797Z,0.00
2018-06-05T02:10:00.777Z,0.00
2018-06-05T02:11:00.752Z,0.00
2018-06-05T02:12:00.736Z,0.00
2018-06-05T02:13:00.722Z,0.00
2018-06-05T02:14:00.706Z,0.00
2018-06-05T02:15:00.700Z,0.00
2018-06-05T02:16:00.677Z,0.00
2018-06-05T02:17:00.660Z,0.00
2018-06-05T02:18:00.649Z,0.00
2018-06-05T02:19:00.630Z,0.00
2018-06-05T02:20:00.615Z,0.00
2018-06-05T02:21:00.619Z,0.00
2018-06-05T02:22:00.590Z,0.00
2018-06-05T02:23:00.624Z,0.00
2018-06-05T02:24:00.567Z,0.00
2018-06-05T02:25:00.587Z,0.00
2018-06-05T02:26:00.542Z,0.00
2018-06-05T02:27:00.509Z,0.00
2018-06-05T02:28:00.494Z,0.00
2018-06-05T02:29:00.476Z,0.00
2018-06-05T02:30:00.460Z,0.00
2018-06-05T02:31:00.448Z,0.00
2018-06-05T02:32:00.575Z,0.00
2018-06-05T02:33:00.417Z,0.00
2018-06-05T02:34:00.426Z,0.00
2018-06-05T02:35:00.388Z,0.00
2018-06-05T02:36:00.373Z,0.00
2018-06-05T02:37:00.356Z,0.00
2018-06-05T02:38:00.336Z,0.00
2018-06-05T02:39:00.323Z,0.00
2018-06-05T02:40:00.306Z,0.00
2018-06-05T02:41:00.294Z,0.00
2018-06-05T02:42:00.276Z,0.00
2018-06-05T02:43:00.259Z,0.00
2018-06-05T02:44:00.253Z,0.00
2018-06-05T02:45:00.245Z,0.00
2018-06-05T02:46:00.243Z,0.00
2018-06-05T02:47:00.212Z,0.00
2018-06-05T02:48:00.188Z,0.00
2018-06-05T02:49:00.174Z,0.00
2018-06-05T02:50:00.152Z,0.00
2018-06-05T02:51:00.151Z,0.00
2018-06-05T02:52:00.121Z,0.00
2018-06-05T02:53:00.107Z,0.00
2018-06-05T02:54:00.094Z,0.00
2018-06-05T02:55:00.078Z,0.00
2018-06-05T02:56:00.060Z,0.00
2018-06-05T02:57:00.045Z,0.00
2018-06-05T02:58:00.031Z,0.00
2018-06-05T02:59:00.015Z,0.00
2018-06-05T02:59:59.998Z,0.00
2018-06-05T03:00:59.991Z,0.00
2018-06-05T03:01:59.973Z,0.00
2018-06-05T03:02:59.982Z,0.00
2018-06-05T03:03:59.936Z,0.00
2018-06-05T03:04:59.924Z,0.00
2018-06-05T03:05:59.908Z,0.00
2018-06-05T03:06:59.893Z,0.00
2018-06-05T03:07:59.877Z,0.00
2018-06-05T03:08:59.861Z,0.00
2018-06-05T03:09:59.843Z,0.00
2018-06-05T03:10:59.829Z,0.00
2018-06-05T03:11:59.817Z,0.00
2018-06-05T03:12:59.796Z,0.00
2018-06-05T03:13:59.785Z,0.00
2018-06-05T03:14:59.766Z,0.00
2018-06-05T03:15:59.751Z,0.00
2018-06-05T03:16:59.737Z,0.00
2018-06-05T03:17:59.723Z,0.00
2018-06-05T03:18:59.704Z,0.00
2018-06-05T03:19:59.689Z,0.00
2018-06-05T03:20:59.673Z,0.00
2018-06-05T03:21:59.659Z,0.00
2018-06-05T03:22:59.651Z,0.00
2018-06-05T03:23:59.625Z,0.00
2018-06-05T03:24:59.613Z,0.00
2018-06-05T03:25:59.596Z,0.00
2018-06-05T03:26:59.580Z,0.00
2018-06-05T03:27:59.565Z,0.00
2018-06-05T03:28:59.549Z,0.00
2018-06-05T03:29:59.538Z,0.00
2018-06-05T03:30:59.518Z,0.00
2018-06-05T03:31:59.503Z,0.00
2018-06-05T03:32:59.487Z,0.00
2018-06-05T03:33:59.476Z,0.00
2018-06-05T03:34:59.456Z,0.00
2018-06-05T03:35:59.441Z,0.00
2018-06-05T03:36:59.425Z,0.00
2018-06-05T03:37:59.408Z,0.00
2018-06-05T03:38:59.396Z,0.00
2018-06-05T03:39:59.384Z,0.00
2018-06-05T03:40:59.363Z,0.00
2018-06-05T03:41:59.350Z,0.00
2018-06-05T03:42:59.396Z,0.00
2018-06-05T03:43:59.317Z,0.00
2018-06-05T03:44:59.300Z,0.00
2018-06-05T03:45:59.283Z,0.00
2018-06-05T03:46:59.273Z,0.00
2018-06-05T03:47:59.252Z,0.00
2018-06-05T03:48:59.241Z,0.00
2018-06-05T03:49:59.253Z,0.00
2018-06-05T03:50:59.210Z,0.00
2018-06-05T03:51:59.191Z,0.00
2018-06-05T03:52:59.177Z,0.00
2018-06-05T03:53:59.164Z,0.00
2018-06-05T03:54:59.143Z,0.00
2018-06-05T03:55:59.138Z,0.00
2018-06-05T03:56:59.153Z,0.00
2018-06-05T03:57:59.142Z,0.00
2018-06-05T03:58:59.133Z,0.00
2018-06-05T03:59:59.066Z,0.00
2018-06-05T04:00:59.941Z,0.00
2018-06-05T04:01:59.035Z,0.00
2018-06-05T04:02:59.043Z,0.00
2018-06-05T04:03:59.055Z,0.00
2018-06-05T04:04:59.000Z,0.00
2018-06-05T04:05:58.977Z,0.00
2018-06-05T04:06:59.067Z,0.00
2018-06-05T04:07:58.951Z,0.00
2018-06-05T04:08:58.979Z,0.00
2018-06-05T04:09:58.968Z,0.00
2018-06-05T04:10:58.894Z,0.00
2018-06-05T04:11:59.326Z,0.00
2018-06-05T04:12:58.908Z,0.00
2018-06-05T04:13:58.857Z,0.00
2018-06-05T04:14:58.845Z,0.00
2018-06-05T04:15:58.816Z,0.00
2018-06-05T04:16:58.868Z,0.00
2018-06-05T04:17:58.782Z,0.00
2018-06-05T04:18:58.792Z,0.00
2018-06-05T04:19:58.751Z,0.00
2018-06-05T04:20:58.737Z,0.00
2018-06-05T04:21:59.212Z,0.00
2018-06-05T04:22:58.707Z,0.00
2018-06-05T04:23:58.739Z,5.63
2018-06-05T04:24:58.674Z,5.63
2018-06-05T04:25:58.659Z,5.63
2018-06-05T04:26:58.643Z,5.63
2018-06-05T04:27:58.634Z,5.63
2018-06-05T04:28:58.610Z,5.63
2018-06-05T04:29:58.598Z,5.63
2018-06-05T04:30:58.582Z,5.63
2018-06-05T04:31:58.563Z,5.63
2018-06-05T04:32:58.549Z,5.63
2018-06-05T04:33:58.531Z,5.63
2018-06-05T04:34:58.520Z,5.63
2018-06-05T04:35:58.531Z,5.63
2018-06-05T04:36:58.485Z,5.63
2018-06-05T04:37:58.471Z,5.63
2018-06-05T04:38:58.455Z,5.63
2018-06-05T04:39:58.437Z,5.63
2018-06-05T04:40:58.426Z,5.63
2018-06-05T04:41:58.407Z,5.63
2018-06-05T04:42:58.390Z,5.63
2018-06-05T04:43:58.431Z,5.63
2018-06-05T04:44:58.360Z,5.63
2018-06-05T04:45:58.343Z,5.63
2018-06-05T04:46:58.406Z,5.63
2018-06-05T04:47:59.006Z,5.63
2018-06-05T04:48:58.336Z,11.25
2018-06-05T04:49:58.288Z,11.25
2018-06-05T04:50:58.274Z,11.25
2018-06-05T04:51:58.249Z,11.25
2018-06-05T04:52:58.244Z,11.25
2018-06-05T04:53:58.218Z,11.25
2018-06-05T04:54:58.203Z,11.25
2018-06-05T04:55:58.245Z,11.25
2018-06-05T04:56:58.170Z,11.25
2018-06-05T04:57:58.155Z,11.25
2018-06-05T04:58:58.139Z,11.25
2018-06-05T04:59:58.124Z,11.25
2018-06-05T05:00:58.958Z,11.25
2018-06-05T05:01:58.119Z,11.25
2018-06-05T05:02:58.082Z,11.25
2018-06-05T05:03:58.072Z,11.25
2018-06-05T05:04:58.046Z,11.25
2018-06-05T05:05:58.030Z,11.25
2018-06-05T05:06:58.078Z,11.25
2018-06-05T05:07:58.005Z,11.25
2018-06-05T05:08:57.994Z,11.25
2018-06-05T05:09:57.968Z,11.25
2018-06-05T05:10:57.951Z,11.25
2018-06-05T05:11:57.935Z,11.25
2018-06-05T05:12:57.917Z,11.25
2018-06-05T05:13:57.920Z,11.25
2018-06-05T05:14:57.886Z,11.25
2018-06-05T05:15:57.871Z,16.88
2018-06-05T05:16:57.882Z,16.88
2018-06-05T05:17:57.844Z,16.88
2018-06-05T05:18:57.825Z,11.25
2018-06-05T05:19:57.809Z,11.25
2018-06-05T05:20:57.794Z,11.25
2018-06-05T05:21:57.778Z,11.25
2018-06-05T05:22:57.763Z,11.25
2018-06-05T05:23:57.744Z,11.25
2018-06-05T05:24:57.728Z,11.25
2018-06-05T05:25:57.713Z,11.25
2018-06-05T05:26:57.699Z,16.88
2018-06-05T05:27:57.681Z,16.88
2018-06-05T05:28:57.668Z,16.88
2018-06-05T05:29:57.651Z,16.88
2018-06-05T05:30:57.649Z,16.88
2018-06-05T05:31:57.621Z,16.88
2018-06-05T05:32:57.603Z,16.88
2018-06-05T05:33:57.587Z,16.88
2018-06-05T05:34:57.612Z,16.88
2018-06-05T05:35:57.601Z,16.88
2018-06-05T05:36:57.542Z,16.88
2018-06-05T05:37:57.534Z,22.50
2018-06-05T05:38:57.511Z,22.50
2018-06-05T05:39:57.497Z,22.50
2018-06-05T05:40:57.476Z,22.50
2018-06-05T05:41:57.468Z,22.50
2018-06-05T05:42:57.457Z,22.50
2018-06-05T05:43:57.448Z,22.50
2018-06-05T05:44:57.415Z,22.50
2018-06-05T05:45:57.400Z,22.50
2018-06-05T05:46:57.382Z,22.50
2018-06-05T05:47:57.416Z,22.50
2018-06-05T05:48:57.358Z,22.50
2018-06-05T05:49:57.344Z,22.50
2018-06-05T05:50:57.322Z,22.50
2018-06-05T05:51:57.302Z,22.50
2018-06-05T05:52:57.331Z,22.50
2018-06-05T05:53:57.285Z,22.50
2018-06-05T05:54:57.259Z,22.50
2018-06-05T05:55:57.275Z,22.50
2018-06-05T05:56:57.249Z,22.50
2018-06-05T05:57:57.210Z,22.50
2018-06-05T05:58:57.193Z,22.50
2018-06-05T05:59:57.180Z,22.50
2018-06-05T06:00:57.213Z,22.50
2018-06-05T06:01:57.147Z,22.50
2018-06-05T06:02:57.145Z,22.50
2018-06-05T06:03:57.114Z,22.50
2018-06-05T06:04:57.099Z,28.13
2018-06-05T06:05:57.137Z,28.13
2018-06-05T06:06:57.090Z,28.13
2018-06-05T06:07:57.054Z,28.13
2018-06-05T06:08:57.044Z,28.13
2018-06-05T06:09:57.018Z,28.13
2018-06-05T06:10:57.082Z,28.13
2018-06-05T06:11:56.990Z,28.13
2018-06-05T06:12:57.019Z,28.13
2018-06-05T06:13:56.957Z,28.13
2018-06-05T06:14:56.942Z,28.13
2018-06-05T06:15:56.925Z,28.13
2018-06-05T06:16:56.912Z,28.13
2018-06-05T06:17:56.893Z,28.13
2018-06-05T06:18:56.878Z,28.13
2018-06-05T06:19:56.861Z,22.50
2018-06-05T06:20:56.848Z,22.50
2018-06-05T06:21:56.833Z,28.13
2018-06-05T06:22:56.816Z,28.13
2018-06-05T06:23:56.801Z,28.13
2018-06-05T06:24:56.786Z,28.13
2018-06-05T06:25:56.787Z,28.13
2018-06-05T06:26:56.778Z,28.13
2018-06-05T06:27:56.735Z,28.13
2018-06-05T06:28:56.733Z,28.13
2018-06-05T06:29:56.718Z,28.13
2018-06-05T06:30:56.699Z,28.13
2018-06-05T06:31:56.682Z,28.13
2018-06-05T06:32:56.659Z,28.13
2018-06-05T06:33:56.642Z,28.13
2018-06-05T06:34:56.626Z,28.13
2018-06-05T06:35:56.610Z,28.13
2018-06-05T06:36:56.593Z,28.13
2018-06-05T06:37:56.579Z,33.75
2018-06-05T06:38:56.565Z,33.75
2018-06-05T06:39:56.549Z,33.75
2018-06-05T06:40:56.533Z,33.75
2018-06-05T06:41:56.518Z,33.75
2018-06-05T06:42:56.504Z,39.38
2018-06-05T06:43:56.487Z,39.38
2018-06-05T06:44:56.474Z,39.38
2018-06-05T06:45:56.463Z,39.38
2018-06-05T06:46:56.474Z,39.38
2018-06-05T06:47:56.427Z,39.38
2018-06-05T06:48:56.474Z,39.38
2018-06-05T06:49:56.389Z,45.00
2018-06-05T06:50:56.377Z,39.38
2018-06-05T06:51:56.360Z,39.38
2018-06-05T06:52:56.344Z,39.38
2018-06-05T06:53:56.328Z,39.38
2018-06-05T06:54:56.311Z,39.38
2018-06-05T06:55:56.296Z,39.38
2018-06-05T06:56:56.281Z,39.38
2018-06-05T06:57:56.272Z,39.38
2018-06-05T06:58:56.251Z,45.00
2018-06-05T06:59:56.246Z,45.00
2018-06-05T07:00:56.217Z,45.00
2018-06-05T07:01:56.203Z,45.00
2018-06-05T07:02:56.191Z,45.00
2018-06-05T07:03:56.196Z,45.00
2018-06-05T07:04:56.155Z,45.00
2018-06-05T07:05:56.144Z,39.38
2018-06-05T07:06:56.124Z,45.00
2018-06-05T07:07:56.122Z,45.00
2018-06-05T07:08:56.091Z,45.00
2018-06-05T07:09:56.085Z,45.00
2018-06-05T07:10:56.077Z,45.00
2018-06-05T07:11:56.046Z,45.00
2018-06-05T07:12:56.032Z,45.00
2018-06-05T07:13:56.015Z,45.00
2018-06-05T07:14:56.000Z,45.00
2018-06-05T07:15:55.984Z,45.00
2018-06-05T07:16:55.969Z,50.63
2018-06-05T07:17:55.954Z,50.63
2018-06-05T07:18:55.940Z,45.00
2018-06-05T07:19:55.924Z,45.00
2018-06-05T07:20:55.905Z,45.00
2018-06-05T07:21:55.889Z,50.63
2018-06-05T07:22:55.874Z,50.63
2018-06-05T07:23:55.862Z,50.63
2018-06-05T07:24:55.844Z,50.63
2018-06-05T07:25:55.835Z,50.63
2018-06-05T07:26:55.813Z,45.00
2018-06-05T07:27:55.796Z,45.00
2018-06-05T07:28:55.783Z,50.63
2018-06-05T07:29:55.766Z,45.00
2018-06-05T07:30:55.750Z,45.00
2018-06-05T07:31:55.733Z,45.00
2018-06-05T07:32:55.717Z,45.00
2018-06-05T07:33:55.705Z,45.00
2018-06-05T07:34:55.688Z,45.00
2018-06-05T07:35:55.672Z,50.63
2018-06-05T07:36:55.656Z,50.63
2018-06-05T07:37:55.642Z,50.63
2018-06-05T07:38:55.626Z,56.25
2018-06-05T07:39:55.611Z,56.25
2018-06-05T07:40:55.595Z,56.25
2018-06-05T07:41:55.579Z,56.25
2018-06-05T07:42:55.562Z,61.88
2018-06-05T07:43:55.547Z,61.88
2018-06-05T07:44:55.531Z,61.88
2018-06-05T07:45:55.515Z,67.50
2018-06-05T07:46:55.502Z,61.88
2018-06-05T07:47:55.484Z,61.88
2018-06-05T07:48:55.470Z,56.25
2018-06-05T07:49:55.456Z,56.25
2018-06-05T07:50:55.439Z,61.88
2018-06-05T07:51:55.424Z,67.50
2018-06-05T07:52:55.406Z,67.50
2018-06-05T07:53:55.391Z,67.50
2018-06-05T07:54:55.375Z,67.50
2018-06-05T07:55:55.361Z,67.50
2018-06-05T07:56:55.346Z,67.50
2018-06-05T07:57:55.330Z,67.50
2018-06-05T07:58:55.315Z,61.88
2018-06-05T07:59:55.298Z,67.50
2018-06-05T08:00:55.284Z,67.50
2018-06-05T08:01:55.270Z,67.50
2018-06-05T08:02:55.258Z,61.88
2018-06-05T08:03:55.245Z,61.88
2018-06-05T08:04:55.222Z,61.88
2018-06-05T08:05:55.206Z,61.88
2018-06-05T08:06:55.192Z,61.88
2018-06-05T08:07:55.176Z,67.50
2018-06-05T08:08:55.169Z,61.88
2018-06-05T08:09:55.169Z,61.88
2018-06-05T08:10:55.129Z,61.88
2018-06-05T08:11:55.119Z,61.88
2018-06-05T08:12:55.098Z,67.50
2018-06-05T08:13:55.083Z,67.50
2018-06-05T08:14:55.068Z,67.50
2018-06-05T08:15:55.061Z,67.50
2018-06-05T08:16:55.041Z,67.50
2018-06-05T08:17:55.021Z,73.13
2018-06-05T08:18:55.007Z,67.50
2018-06-05T08:19:54.989Z,67.50
2018-06-05T08:20:54.978Z,67.50
2018-06-05T08:21:54.961Z,67.50
2018-06-05T08:22:54.946Z,67.50
2018-06-05T08:23:54.928Z,73.13
2018-06-05T08:24:54.914Z,78.75
2018-06-05T08:25:54.902Z,78.75
2018-06-05T08:26:54.884Z,73.13
2018-06-05T08:27:54.865Z,73.13
2018-06-05T08:28:54.853Z,73.13
2018-06-05T08:29:54.844Z,73.13
2018-06-05T08:30:54.822Z,78.75
2018-06-05T08:31:54.805Z,73.13
2018-06-05T08:32:54.792Z,73.13
2018-06-05T08:33:54.775Z,73.13
2018-06-05T08:34:54.761Z,73.13
2018-06-05T08:35:54.743Z,78.75
2018-06-05T08:36:54.728Z,73.13
2018-06-05T08:37:54.748Z,73.13
2018-06-05T08:38:54.699Z,73.13
2018-06-05T08:39:54.685Z,78.75
2018-06-05T08:40:54.668Z,73.13
2018-06-05T08:41:54.653Z,73.13
2018-06-05T08:42:54.638Z,73.13
2018-06-05T08:43:54.621Z,73.13
2018-06-05T08:44:54.607Z,73.13
2018-06-05T08:45:54.597Z,73.13
2018-06-05T08:46:54.577Z,73.13
2018-06-05T08:47:54.564Z,73.13
2018-06-05T08:48:54.547Z,78.75
2018-06-05T08:49:54.537Z,78.75
2018-06-05T08:50:54.516Z,73.13
2018-06-05T08:51:54.499Z,78.75
2018-06-05T08:52:54.484Z,78.75
2018-06-05T08:53:54.470Z,78.75
2018-06-05T08:54:54.453Z,78.75
2018-06-05T08:55:54.440Z,78.75
2018-06-05T08:56:54.423Z,73.13
2018-06-05T08:57:54.416Z,73.13
2018-06-05T08:58:54.393Z,73.13
2018-06-05T08:59:54.421Z,73.13
2018-06-05T09:00:54.366Z,73.13
2018-06-05T09:01:54.348Z,67.50
2018-06-05T09:02:54.331Z,67.50
2018-06-05T09:03:54.318Z,67.50
2018-06-05T09:04:54.301Z,67.50
2018-06-05T09:05:54.285Z,67.50
2018-06-05T09:06:54.271Z,67.50
2018-06-05T09:07:54.258Z,67.50
2018-06-05T09:08:54.249Z,67.50
2018-06-05T09:09:54.226Z,73.13
2018-06-05T09:10:54.216Z,73.13
2018-06-05T09:11:54.196Z,73.13
2018-06-05T09:12:54.180Z,73.13
2018-06-05T09:13:54.186Z,73.13
2018-06-05T09:14:54.173Z,73.13
2018-06-05T09:15:54.135Z,73.13
2018-06-05T09:16:54.121Z,73.13
2018-06-05T09:17:54.110Z,73.13
2018-06-05T09:18:54.090Z,73.13
2018-06-05T09:19:54.076Z,73.13
2018-06-05T09:20:54.058Z,73.13
2018-06-05T09:21:54.044Z,73.13
2018-06-05T09:22:54.028Z,73.13
2018-06-05T09:23:54.012Z,73.13
2018-06-05T09:24:54.002Z,73.13
2018-06-05T09:25:53.994Z,73.13
2018-06-05T09:26:53.968Z,73.13
2018-06-05T09:27:53.949Z,78.75
2018-06-05T09:28:53.942Z,78.75
2018-06-05T09:29:53.920Z,78.75
2018-06-05T09:30:53.910Z,84.38
2018-06-05T09:31:53.898Z,84.38
2018-06-05T09:32:53.880Z,84.38
2018-06-05T09:33:53.859Z,84.38
2018-06-05T09:34:53.846Z,78.75
2018-06-05T09:35:53.831Z,78.75
2018-06-05T09:36:53.820Z,78.75
2018-06-05T09:37:53.798Z,78.75
2018-06-05T09:38:53.786Z,78.75
2018-06-05T09:39:53.769Z,78.75
2018-06-05T09:40:53.756Z,78.75
2018-06-05T09:41:53.739Z,78.75
2018-06-05T09:42:53.722Z,78.75
2018-06-05T09:43:53.708Z,73.13
2018-06-05T09:44:53.693Z,73.13
2018-06-05T09:45:53.679Z,73.13
2018-06-05T09:46:53.680Z,73.13
2018-06-05T09:47:53.647Z,73.13
2018-06-05T09:48:53.632Z,73.13
2018-06-05T09:49:53.618Z,73.13
2018-06-05T09:50:53.601Z,73.13
2018-06-05T09:51:53.585Z,73.13
2018-06-05T09:52:53.571Z,73.13
2018-06-05T09:53:53.557Z,78.75
2018-06-05T09:54:53.545Z,78.75
2018-06-05T09:55:53.525Z,84.38
2018-06-05T09:56:53.509Z,90.00
2018-06-05T09:57:53.591Z,84.38
2018-06-05T09:58:53.481Z,84.38
2018-06-05T09:59:53.466Z,84.38
2018-06-05T10:00:53.450Z,78.75
2018-06-05T10:01:53.436Z,78.75
2018-06-05T10:02:53.418Z,78.75
2018-06-05T10:03:53.456Z,78.75
2018-06-05T10:04:53.388Z,78.75
2018-06-05T10:05:53.375Z,78.75
2018-06-05T10:06:53.361Z,84.38
2018-06-05T10:07:53.344Z,90.00
2018-06-05T10:08:53.330Z,90.00
2018-06-05T10:09:53.316Z,90.00
2018-06-05T10:10:53.300Z,90.00
2018-06-05T10:11:53.284Z,90.00
2018-06-05T10:12:53.270Z,90.00
2018-06-05T10:13:53.258Z,90.00
2018-06-05T10:14:53.239Z,84.38
2018-06-05T10:15:53.222Z,84.38
2018-06-05T10:16:53.209Z,84.38
2018-06-05T10:17:53.197Z,78.75
2018-06-05T10:18:53.177Z,78.75
2018-06-05T10:19:53.186Z,78.75
2018-06-05T10:20:53.151Z,78.75
2018-06-05T10:21:53.132Z,78.75
2018-06-05T10:22:53.121Z,84.38
2018-06-05T10:23:53.104Z,84.38
2018-06-05T10:24:53.094Z,84.38
2018-06-05T10:25:53.075Z,84.38
2018-06-05T10:26:53.059Z,84.38
2018-06-05T10:27:53.050Z,84.38
2018-06-05T10:28:53.026Z,84.38
2018-06-05T10:29:53.018Z,84.38
2018-06-05T10:30:53.000Z,84.38
2018-06-05T10:31:52.984Z,90.00
2018-06-05T10:32:52.972Z,90.00
2018-06-05T10:33:52.954Z,90.00
2018-06-05T10:34:53.016Z,90.00
2018-06-05T10:35:52.926Z,90.00
2018-06-05T10:36:52.909Z,90.00
2018-06-05T10:37:52.899Z,90.00
2018-06-05T10:38:52.883Z,90.00
2018-06-05T10:39:52.868Z,95.63
2018-06-05T10:40:52.848Z,95.63
2018-06-05T10:41:52.858Z,101.25
2018-06-05T10:42:52.817Z,101.25
2018-06-05T10:43:52.804Z,101.25
2018-06-05T10:44:52.788Z,101.25
2018-06-05T10:45:52.774Z,95.63
2018-06-05T10:46:52.761Z,95.63
2018-06-05T10:47:52.744Z,95.63
2018-06-05T10:48:52.733Z,95.63
2018-06-05T10:49:52.714Z,95.63
2018-06-05T10:50:52.698Z,101.25
2018-06-05T10:51:52.697Z,101.25
2018-06-05T10:52:52.671Z,101.25
2018-06-05T10:53:52.653Z,106.88
2018-06-05T10:54:52.639Z,112.50
2018-06-05T10:55:52.623Z,118.13
2018-06-05T10:56:52.608Z,123.75
2018-06-05T10:57:52.595Z,123.75
2018-06-05T10:58:52.582Z,123.75
2018-06-05T10:59:52.564Z,123.75
2018-06-05T11:00:52.552Z,129.38
2018-06-05T11:01:52.537Z,135.00
2018-06-05T11:02:52.519Z,146.25
2018-06-05T11:03:52.505Z,146.25
2018-06-05T11:04:52.490Z,129.38
2018-06-05T11:05:52.481Z,118.13
2018-06-05T11:06:52.460Z,118.13
2018-06-05T11:07:52.449Z,118.13
2018-06-05T11:08:52.430Z,118.13
2018-06-05T11:09:52.417Z,118.13
2018-06-05T11:10:52.401Z,118.13
2018-06-05T11:11:52.386Z,118.13
2018-06-05T11:12:52.373Z,118.13
2018-06-05T11:13:52.361Z,112.50
2018-06-05T11:14:52.342Z,112.50
2018-06-05T11:15:52.329Z,106.88
2018-06-05T11:16:52.319Z,106.88
2018-06-05T11:17:52.301Z,112.50
2018-06-05T11:18:52.284Z,118.13
2018-06-05T11:19:52.273Z,129.38
2018-06-05T11:20:52.257Z,135.00
2018-06-05T11:21:52.245Z,140.63
2018-06-05T11:22:52.225Z,135.00
2018-06-05T11:23:52.210Z,135.00
2018-06-05T11:24:52.194Z,140.63
2018-06-05T11:25:52.183Z,146.25
2018-06-05T11:26:52.176Z,151.88
2018-06-05T11:27:52.149Z,151.88
2018-06-05T11:28:52.141Z,146.25
2018-06-05T11:29:52.128Z,146.25
2018-06-05T11:30:52.115Z,135.00
2018-06-05T11:31:52.097Z,129.38
2018-06-05T11:32:52.080Z,123.75
2018-06-05T11:33:52.093Z,118.13
2018-06-05T11:34:52.073Z,118.13
2018-06-05T11:35:52.066Z,118.13
2018-06-05T11:36:52.032Z,112.50
2018-06-05T11:37:52.022Z,112.50
2018-06-05T11:38:52.010Z,112.50
2018-06-05T11:39:51.975Z,118.13
2018-06-05T11:40:51.965Z,118.13
2018-06-05T11:41:51.958Z,118.13
2018-06-05T11:42:51.935Z,118.13
2018-06-05T11:43:51.934Z,118.13
2018-06-05T11:44:51.905Z,123.75
2018-06-05T11:45:51.920Z,129.38
2018-06-05T11:46:51.887Z,129.38
2018-06-05T11:47:51.865Z,135.00
2018-06-05T11:48:51.851Z,140.63
2018-06-05T11:49:51.834Z,140.63
2018-06-05T11:50:51.815Z,140.63
2018-06-05T11:51:51.804Z,140.63
2018-06-05T11:52:51.801Z,140.63
2018-06-05T11:53:51.787Z,140.63
2018-06-05T11:54:51.760Z,140.63
2018-06-05T11:55:51.743Z,140.63
2018-06-05T11:56:51.728Z,140.63
2018-06-05T11:57:51.721Z,140.63
2018-06-05T11:58:51.702Z,140.63
2018-06-05T11:59:51.692Z,140.63
2018-06-05T12:00:51.696Z,140.63
2018-06-05T12:01:51.685Z,146.25
2018-06-05T12:02:51.656Z,146.25
2018-06-05T12:03:51.630Z,146.25
2018-06-05T12:04:51.616Z,146.25
2018-06-05T12:05:51.599Z,146.25
2018-06-05T12:06:51.585Z,140.63
2018-06-05T12:07:51.574Z,140.63
2018-06-05T12:08:51.556Z,140.63
2018-06-05T12:09:51.542Z,140.63
2018-06-05T12:10:51.526Z,140.63
2018-06-05T12:11:51.512Z,135.00
2018-06-05T12:12:51.502Z,129.38
2018-06-05T12:13:51.486Z,123.75
2018-06-05T12:14:51.478Z,123.75
2018-06-05T12:15:51.456Z,123.75
2018-06-05T12:16:51.449Z,123.75
2018-06-05T12:17:51.485Z,123.75
2018-06-05T12:18:51.414Z,123.75
2018-06-05T12:19:51.397Z,123.75
2018-06-05T12:20:51.384Z,129.38
2018-06-05T12:21:51.370Z,129.38
2018-06-05T12:22:51.354Z,129.38
2018-06-05T12:23:51.340Z,129.38
2018-06-05T12:24:51.326Z,123.75
2018-06-05T12:25:51.317Z,129.38
2018-06-05T12:26:51.300Z,129.38
2018-06-05T12:27:51.283Z,129.38
2018-06-05T12:28:51.287Z,135.00
2018-06-05T12:29:51.256Z,140.63
2018-06-05T12:30:51.242Z,157.50
2018-06-05T12:31:51.227Z,151.88
2018-06-05T12:32:51.214Z,146.25
2018-06-05T12:33:51.199Z,146.25
2018-06-05T12:34:51.184Z,135.00
2018-06-05T12:35:51.193Z,129.38
2018-06-05T12:36:51.156Z,118.13
2018-06-05T12:37:51.144Z,118.13
2018-06-05T12:38:51.129Z,112.50
2018-06-05T12:39:51.114Z,118.13
2018-06-05T12:40:51.099Z,118.13
2018-06-05T12:41:51.085Z,123.75
2018-06-05T12:42:51.072Z,129.38
2018-06-05T12:43:51.057Z,129.38
2018-06-05T12:44:51.046Z,129.38
2018-06-05T12:45:51.031Z,129.38
2018-06-05T12:46:51.015Z,123.75
2018-06-05T12:47:51.002Z,123.75
2018-06-05T12:48:50.985Z,129.38
2018-06-05T12:49:50.971Z,129.38
2018-06-05T12:50:50.958Z,135.00
2018-06-05T12:51:50.946Z,140.63
2018-06-05T12:52:50.933Z,140.63
2018-06-05T12:53:50.916Z,151.88
2018-06-05T12:54:50.908Z,151.88
2018-06-05T12:55:50.887Z,163.13
2018-06-05T12:56:50.874Z,180.00